Time;durP1;ratioP1;P1;durP2;ratioP2;P2;SDS_P1;SDS_P2;PMS_P1;PMS_P2;Temp;Humidity;BMP_temperature;BMP_pressure;BME280_temperature;BME280_humidity;BME280_pressure;Samples;Min_cycle;Max_cycle;Signal;HPM_P1;HPM_P2
2021/10/08 00:00:30;;;;;;;2.23;1.80;;;;;;;21.55;77.40;98475.91;5013687;28;20202;-68
2021/10/08 00:02:57;;;;;;;1.93;1.77;;;;;;;21.54;77.35;98468.16;5013336;28;20222;-64
2021/10/08 00:05:23;;;;;;;2.00;1.80;;;;;;;20.13;77.44;98222.38;5013284;28;20234;-67
2021/10/08 00:07:50;;;;;;;1.90;1.80;;;;;;;21.54;77.47;98468.16;5012437;28;20291;-67
2021/10/08 00:10:16;;;;;;;1.83;1.63;;;;;;;21.54;78.01;98466.50;5006804;28;20206;-67
2021/10/08 00:12:43;;;;;;;2.17;1.80;;;;;;;21.54;77.11;98469.03;5008121;28;20202;-67
2021/10/08 00:15:10;;;;;;;2.10;1.90;;;;;;;21.54;77.56;98465.59;5012937;28;20511;-67
2021/10/08 00:17:37;;;;;;;1.83;1.73;;;;;;;21.53;77.66;98462.16;5012303;28;20233;-68
2021/10/08 00:20:04;;;;;;;2.33;1.87;;;;;;;21.50;77.69;98454.34;5012967;28;20233;-67
2021/10/08 00:22:31;;;;;;;2.30;2.10;;;;;;;21.54;77.47;98463.03;5023888;28;20268;-67
2021/10/08 00:24:57;;;;;;;2.67;1.90;;;;;;;21.55;77.75;98464.78;5012829;28;20432;-69
2021/10/08 00:27:24;;;;;;;2.10;1.90;;;;;;;21.54;77.53;98466.50;5013189;28;20213;-67
2021/10/08 00:29:50;;;;;;;2.30;1.80;;;;;;;21.53;77.52;98457.03;5012721;28;20276;-67
2021/10/08 00:32:17;;;;;;;2.27;1.50;;;;;;;21.53;77.67;98456.19;5013292;28;20809;-67
2021/10/08 00:34:44;;;;;;;2.00;1.80;;;;;;;21.53;77.47;98453.63;5011119;28;20218;-67
2021/10/08 00:37:10;;;;;;;1.67;1.57;;;;;;;21.52;77.56;98457.84;5013180;28;20206;-67
2021/10/08 00:39:37;;;;;;;1.63;1.53;;;;;;;20.12;77.80;98212.06;5011087;28;20206;-67
2021/10/08 00:42:04;;;;;;;1.90;1.80;;;;;;;21.52;77.54;98455.31;5013206;28;20305;-67
2021/10/08 00:44:31;;;;;;;2.17;1.70;;;;;;;21.52;77.50;98454.41;5013602;28;20304;-68
2021/10/08 00:46:58;;;;;;;2.13;1.70;;;;;;;21.52;77.58;98447.63;5012153;28;20203;-67
2021/10/08 00:49:24;;;;;;;1.70;1.60;;;;;;;21.52;77.61;98452.75;5012749;28;20234;-69
2021/10/08 00:51:51;;;;;;;2.00;1.80;;;;;;;21.16;77.74;98386.31;5009615;28;20337;-68
2021/10/08 00:54:18;;;;;;;1.60;1.50;;;;;;;21.52;77.74;98449.31;5012664;28;20767;-67
2021/10/08 00:56:45;;;;;;;1.73;1.63;;;;;;;20.98;77.70;98359.94;5009258;28;20203;-68
2021/10/08 00:59:12;;;;;;;2.00;1.80;;;;;;;21.52;77.41;98446.75;5008926;28;20694;-67
2021/10/08 01:01:38;;;;;;;1.67;1.57;;;;;;;21.52;77.73;98450.19;5009135;28;20659;-66
2021/10/08 01:04:06;;;;;;;2.07;1.87;;;;;;;21.43;77.64;98437.00;5008463;28;20301;-67
2021/10/08 01:06:33;;;;;;;1.80;1.70;;;;;;;21.52;77.64;98442.50;5009535;28;20198;-67
2021/10/08 01:08:59;;;;;;;1.70;1.60;;;;;;;21.52;77.61;98442.50;5012338;28;20627;-67
2021/10/08 01:11:26;;;;;;;2.03;1.83;;;;;;;21.53;77.90;98448.50;5012340;28;20644;-69
2021/10/08 01:13:53;;;;;;;2.50;1.93;;;;;;;21.52;77.97;98442.50;5012393;28;20308;-67
2021/10/08 01:16:22;;;;;;;2.17;1.80;;;;;;;21.48;77.81;98432.09;5011839;28;20244;-65
2021/10/08 01:18:49;;;;;;;1.70;1.60;;;;;;;21.52;77.88;98439.97;4998229;28;20214;-67
2021/10/08 01:21:16;;;;;;;1.80;1.70;;;;;;;21.53;77.73;98443.41;5012033;28;20214;-67
2021/10/08 01:23:42;;;;;;;1.57;1.47;;;;;;;21.53;77.83;98435.72;5010957;28;20645;-67
2021/10/08 01:26:09;;;;;;;1.67;1.57;;;;;;;21.53;77.67;98434.03;5011631;28;20198;-70
2021/10/08 01:28:35;;;;;;;1.70;1.60;;;;;;;20.04;77.73;98170.03;5013469;28;20233;-67
2021/10/08 01:31:02;;;;;;;2.00;1.70;;;;;;;21.55;77.57;98429.84;5011830;28;20349;-67
2021/10/08 01:33:29;;;;;;;2.00;1.80;;;;;;;21.55;77.63;98421.28;5011952;28;20229;-67
2021/10/08 01:35:55;;;;;;;1.73;1.63;;;;;;;21.37;77.76;98393.25;5008298;28;20793;-68
2021/10/08 01:38:22;;;;;;;2.33;1.77;;;;;;;21.48;77.79;98414.19;5007793;28;20724;-70
2021/10/08 01:40:48;;;;;;;1.80;1.70;;;;;;;21.57;77.57;98428.25;4995562;28;20206;-67
2021/10/08 01:43:15;;;;;;;2.47;2.03;;;;;;;21.53;77.64;98425.50;5010272;28;20257;-67
2021/10/08 01:45:41;;;;;;;2.00;1.80;;;;;;;21.58;77.45;98432.53;5010750;28;20754;-68
2021/10/08 01:48:08;;;;;;;1.80;1.70;;;;;;;21.59;77.71;98433.44;5007976;28;20297;-67
2021/10/08 01:50:35;;;;;;;1.97;1.77;;;;;;;21.34;77.45;98394.78;5011175;28;20244;-67
2021/10/08 01:53:01;;;;;;;2.13;1.90;;;;;;;20.65;77.18;98269.00;5011470;28;20676;-67
2021/10/08 01:55:28;;;;;;;1.70;1.60;;;;;;;21.16;77.55;98358.19;5011628;28;20305;-67
2021/10/08 01:57:54;;;;;;;2.97;1.63;;;;;;;21.61;77.43;98435.25;5011207;28;20202;-69
2021/10/08 02:00:21;;;;;;;1.53;1.43;;;;;;;21.61;77.63;98426.69;5011928;28;20317;-69
2021/10/08 02:02:48;;;;;;;2.00;1.80;;;;;;;20.91;77.52;98310.22;5011716;28;20254;-67
2021/10/08 02:05:14;;;;;;;2.27;1.90;;;;;;;21.61;77.60;98422.44;5014810;28;20256;-67
2021/10/08 02:07:41;;;;;;;1.67;1.57;;;;;;;21.63;77.46;98422.50;5011145;28;20280;-69
2021/10/08 02:10:07;;;;;;;2.03;1.80;;;;;;;21.63;77.48;98425.06;5007271;28;20667;-67
2021/10/08 02:12:34;;;;;;;1.80;1.70;;;;;;;21.63;77.47;98431.06;5014382;28;20201;-68
2021/10/08 02:15:01;;;;;;;1.80;1.70;;;;;;;21.62;77.56;98431.84;5009104;28;20250;-67
2021/10/08 02:17:28;;;;;;;1.63;1.53;;;;;;;20.81;77.39;98286.75;5007901;28;20659;-67
2021/10/08 02:19:54;;;;;;;1.60;1.50;;;;;;;20.96;77.35;98308.75;5008948;28;20595;-67
2021/10/08 02:22:21;;;;;;;3.60;1.67;;;;;;;21.13;76.88;98351.28;5011253;28;20652;-66
2021/10/08 02:24:48;;;;;;;1.83;1.73;;;;;;;20.98;77.33;98313.94;5011132;28;20260;-68
2021/10/08 02:27:15;;;;;;;1.77;1.63;;;;;;;21.65;77.15;98431.13;5011526;28;20575;-68
2021/10/08 02:29:42;;;;;;;2.10;1.90;;;;;;;20.91;76.94;98314.47;5011342;28;20500;-68
2021/10/08 02:32:08;;;;;;;1.80;1.70;;;;;;;21.51;77.13;98404.06;5013623;28;20237;-68
2021/10/08 02:34:35;;;;;;;1.70;1.60;;;;;;;21.65;76.80;98426.88;5008940;28;20256;-67
2021/10/08 02:37:01;;;;;;;2.00;1.77;;;;;;;21.66;77.11;98426.09;5015135;28;20230;-69
2021/10/08 02:39:28;;;;;;;1.57;1.47;;;;;;;21.66;77.47;98427.75;5012282;28;20305;-67
2021/10/08 02:41:55;;;;;;;1.97;1.80;;;;;;;20.60;77.01;98240.69;5010956;28;20233;-68
2021/10/08 02:44:21;;;;;;;1.77;1.67;;;;;;;21.67;77.53;98432.06;5013068;28;20234;-67
2021/10/08 02:46:48;;;;;;;2.93;1.70;;;;;;;21.67;77.24;98425.28;5014185;28;20284;-67
2021/10/08 02:49:21;;;;;;;2.67;1.77;;;;;;;21.67;77.10;98430.38;5015039;28;20264;-68
2021/10/08 02:51:49;;;;;;;1.97;1.77;;;;;;;21.67;77.01;98438.06;5011967;28;20640;-68
2021/10/08 02:54:16;;;;;;;1.80;1.60;;;;;;;21.67;77.06;98425.28;5015662;28;20257;-68
2021/10/08 02:56:42;;;;;;;2.10;1.87;;;;;;;21.67;77.24;98432.94;5014643;28;20624;-67
2021/10/08 02:59:09;;;;;;;1.83;1.73;;;;;;;21.68;77.18;98426.16;5022102;28;20285;-68
2021/10/08 03:01:36;;;;;;;1.70;1.60;;;;;;;21.67;76.99;98430.38;5014026;28;20293;-66
2021/10/08 03:04:04;;;;;;;1.67;1.50;;;;;;;21.68;77.26;98423.59;5014285;28;20703;-67
2021/10/08 03:06:31;;;;;;;1.80;1.70;;;;;;;20.77;76.87;98270.41;5014634;28;20635;-67
2021/10/08 03:08:58;;;;;;;1.80;1.70;;;;;;;20.78;76.47;98269.59;5009063;28;20289;-68
2021/10/08 03:11:25;;;;;;;1.60;1.50;;;;;;;20.87;77.17;98289.59;5014566;28;20233;-69
2021/10/08 03:13:51;;;;;;;2.17;1.97;;;;;;;21.67;77.03;98427.81;5012037;28;20221;-67
2021/10/08 03:16:18;;;;;;;1.67;1.50;;;;;;;21.68;77.01;98426.16;5014045;28;20238;-68
2021/10/08 03:18:44;;;;;;;1.67;1.57;;;;;;;21.67;77.13;98425.28;5010765;28;20694;-68
2021/10/08 03:21:11;;;;;;;1.80;1.70;;;;;;;20.76;76.99;98273.78;5006446;28;20288;-69
2021/10/08 03:23:38;;;;;;;1.70;1.60;;;;;;;21.68;77.15;98433.81;5014225;28;20312;-67
2021/10/08 03:26:04;;;;;;;2.10;1.90;;;;;;;21.67;77.27;98430.38;5013869;28;20278;-67
2021/10/08 03:28:31;;;;;;;1.73;1.63;;;;;;;21.69;77.01;98430.44;5014605;28;20274;-67
2021/10/08 03:30:58;;;;;;;2.10;1.90;;;;;;;20.97;77.18;98310.53;5011612;28;20241;-67
2021/10/08 03:33:25;;;;;;;2.50;1.67;;;;;;;21.68;76.90;98433.81;5011942;28;20195;-67
2021/10/08 03:35:52;;;;;;;2.77;1.53;;;;;;;20.82;77.18;98283.38;5014420;28;20245;-67
2021/10/08 03:38:19;;;;;;;1.57;1.47;;;;;;;21.68;77.20;98434.69;5007942;28;20239;-67
2021/10/08 03:43:31;;;;;;;2.07;1.60;;;;;;;21.69;77.16;98435.56;4999711;28;20215;-67
2021/10/08 03:46:01;;;;;;;2.10;1.80;;;;;;;21.69;77.26;98435.56;5007153;28;20240;-67
2021/10/08 03:51:13;;;;;;;2.20;1.60;;;;;;;21.69;77.30;98440.69;5005390;28;20234;-70
2021/10/08 03:53:39;;;;;;;3.77;1.60;;;;;;;20.35;77.10;98208.91;5000405;28;20234;-68
2021/10/08 03:56:06;;;;;;;2.70;1.90;;;;;;;21.69;76.77;98440.69;5000711;28;20207;-69
2021/10/08 03:58:32;;;;;;;3.50;1.70;;;;;;;21.69;76.88;98441.56;5002732;28;20242;-74
2021/10/08 04:00:59;;;;;;;1.93;1.63;;;;;;;21.69;76.90;98439.00;5002431;28;20285;-67
2021/10/08 04:03:26;;;;;;;1.97;1.83;;;;;;;21.00;76.84;98322.56;5019194;28;20807;-69
2021/10/08 04:05:52;;;;;;;1.87;1.70;;;;;;;21.70;77.08;98447.53;5004472;28;20289;-68
2021/10/08 04:08:19;;;;;;;1.70;1.60;;;;;;;21.55;76.92;98417.06;4999940;28;20233;-69
2021/10/08 04:10:45;;;;;;;1.70;1.60;;;;;;;21.22;77.09;98361.03;5002444;28;20202;-68
2021/10/08 04:13:12;;;;;;;1.67;1.57;;;;;;;21.69;76.82;98441.56;5001729;28;20222;-70
2021/10/08 04:15:38;;;;;;;1.73;1.63;;;;;;;21.62;77.11;98426.75;5003593;28;20253;-68
2021/10/08 04:18:05;;;;;;;1.60;1.50;;;;;;;21.70;76.62;98442.41;5012174;28;20209;-67
2021/10/08 04:20:32;;;;;;;2.17;1.63;;;;;;;21.70;77.08;98445.88;5012257;28;20751;-69
2021/10/08 04:22:58;;;;;;;2.03;1.80;;;;;;;21.71;76.88;98446.75;5006186;28;20650;-67
2021/10/08 04:25:25;;;;;;;2.00;1.80;;;;;;;21.71;76.95;98447.59;5003978;28;20661;-66
2021/10/08 04:27:51;;;;;;;2.03;1.90;;;;;;;21.71;76.86;98451.88;5006422;28;20237;-66
2021/10/08 04:30:18;;;;;;;3.37;1.80;;;;;;;21.71;77.11;98445.03;5008353;28;20248;-66
2021/10/08 04:32:45;;;;;;;1.80;1.70;;;;;;;21.53;77.09;98430.59;4989726;28;20748;-66
2021/10/08 04:35:11;;;;;;;4.00;1.60;;;;;;;21.71;77.03;98444.19;5004791;28;20337;-66
2021/10/08 04:37:38;;;;;;;1.90;1.80;;;;;;;21.69;77.15;98444.13;5130913;22;20251;-65
2021/10/08 04:40:05;;;;;;;1.60;1.50;;;;;;;21.71;77.36;98447.59;5040441;28;20685;-66
2021/10/08 04:42:31;;;;;;;2.67;1.70;;;;;;;21.70;77.07;98445.88;5060313;28;20316;-66
2021/10/08 04:44:58;;;;;;;2.57;1.80;;;;;;;21.51;77.16;98411.75;5059934;28;20278;-65
2021/10/08 04:47:25;;;;;;;1.87;1.73;;;;;;;21.68;77.01;98441.50;5042167;28;20261;-65
2021/10/08 04:49:51;;;;;;;1.80;1.70;;;;;;;21.72;76.75;98451.06;5068219;28;20232;-65
2021/10/08 04:52:18;;;;;;;2.27;2.07;;;;;;;21.71;77.13;98447.59;5052085;28;20232;-63
2021/10/08 04:54:44;;;;;;;2.20;1.70;;;;;;;21.70;77.16;98440.75;5064862;28;20663;-65
2021/10/08 04:57:11;;;;;;;2.23;1.80;;;;;;;21.72;76.63;98445.94;5064445;28;20662;-64
2021/10/08 04:59:37;;;;;;;2.17;1.80;;;;;;;21.58;77.13;98419.75;5065014;28;20250;-65
2021/10/08 05:02:04;;;;;;;8.43;2.00;;;;;;;21.72;77.16;98445.94;5047707;28;20224;-63
2021/10/08 05:04:31;;;;;;;5.83;2.00;;;;;;;21.71;77.32;98442.50;5052025;28;20224;-65
2021/10/08 05:06:57;;;;;;;11.80;2.40;;;;;;;21.68;77.19;98444.06;5067390;28;20793;-66
2021/10/08 05:09:24;;;;;;;4.70;2.20;;;;;;;21.68;77.40;98436.38;5051129;28;20677;-65
2021/10/08 05:11:50;;;;;;;3.27;2.17;;;;;;;21.73;77.02;98453.69;5046768;28;20461;-65
2021/10/08 05:14:17;;;;;;;2.13;1.77;;;;;;;21.70;77.26;98443.31;5064662;28;20256;-62
2021/10/08 05:16:43;;;;;;;7.17;2.07;;;;;;;21.68;77.26;98436.38;5044500;28;20283;-63
2021/10/08 05:19:10;;;;;;;3.93;1.83;;;;;;;21.70;77.24;98434.75;5058927;28;20232;-63
2021/10/08 05:21:37;;;;;;;6.20;2.10;;;;;;;21.68;77.37;98439.78;5040686;28;20227;-65
2021/10/08 05:24:04;;;;;;;5.03;2.00;;;;;;;21.69;77.07;98439.00;5057395;28;20631;-62
2021/10/08 05:26:30;;;;;;;2.30;1.93;;;;;;;21.69;77.10;98443.25;5045716;28;20228;-63
2021/10/08 05:28:57;;;;;;;5.27;1.97;;;;;;;21.64;77.33;98435.38;5065644;28;20247;-62
2021/10/08 05:31:24;;;;;;;3.67;1.97;;;;;;;21.68;77.32;98444.91;5041008;28;20239;-62
2021/10/08 05:33:50;;;;;;;6.27;2.40;;;;;;;21.68;77.79;98439.78;5064078;28;20193;-64
2021/10/08 05:36:17;;;;;;;2.33;2.07;;;;;;;21.68;77.32;98447.47;5062485;28;20236;-64
2021/10/08 05:38:44;;;;;;;2.83;1.97;;;;;;;21.68;77.25;98442.34;5063294;28;20370;-63
2021/10/08 05:41:10;;;;;;;5.57;2.30;;;;;;;21.61;77.35;98432.69;5057238;28;20224;-62
2021/10/08 05:43:37;;;;;;;1.73;1.60;;;;;;;21.67;77.46;98448.28;5042460;28;20313;-63
2021/10/08 05:46:03;;;;;;;5.03;1.93;;;;;;;21.67;77.52;98442.28;5066050;28;20287;-63
2021/10/08 05:48:30;;;;;;;3.70;2.20;;;;;;;21.68;77.61;98444.91;5064982;28;20216;-63
2021/10/08 05:50:57;;;;;;;2.33;1.80;;;;;;;21.68;77.28;98437.25;5064241;28;20568;-62
2021/10/08 05:53:23;;;;;;;2.13;1.93;;;;;;;21.68;77.11;98442.34;5064792;28;20239;-62
2021/10/08 05:55:50;;;;;;;2.20;1.90;;;;;;;21.67;77.47;98442.28;5066014;28;20259;-60
2021/10/08 05:58:16;;;;;;;2.23;2.00;;;;;;;21.67;77.50;98445.75;5060729;28;20639;-61
2021/10/08 06:00:43;;;;;;;3.20;1.90;;;;;;;21.68;77.51;98451.75;5065815;28;20297;-61
2021/10/08 06:03:09;;;;;;;2.67;1.93;;;;;;;21.67;77.05;98449.97;5055931;28;20203;-64
2021/10/08 06:05:37;;;;;;;2.53;2.00;;;;;;;21.68;77.51;98451.75;5039073;28;20218;-62
2021/10/08 06:08:05;;;;;;;2.63;1.80;;;;;;;21.68;77.48;98452.59;5065659;28;20295;-62
2021/10/08 06:10:36;;;;;;;2.20;1.70;;;;;;;21.68;77.46;98459.41;5045608;28;20209;-63
2021/10/08 06:13:02;;;;;;;2.40;2.20;;;;;;;21.47;77.28;98428.63;5027480;28;20277;-63
2021/10/08 06:15:29;;;;;;;2.63;2.03;;;;;;;21.67;77.42;98462.75;5046278;28;20773;-63
2021/10/08 06:17:55;;;;;;;1.97;1.77;;;;;;;21.63;77.49;98458.31;5063878;28;20271;-64
2021/10/08 06:20:22;;;;;;;2.67;2.13;;;;;;;21.67;77.43;98471.31;5049026;28;20210;-62
2021/10/08 06:22:49;;;;;;;4.33;2.30;;;;;;;21.68;77.32;98472.22;5062182;28;20688;-62
2021/10/08 06:25:15;;;;;;;5.87;4.20;;;;;;;21.54;75.46;98450.25;5059760;28;20624;-63
2021/10/08 06:27:42;;;;;;;6.00;4.63;;;;;;;21.66;73.88;98467.03;5045726;28;20319;-62
2021/10/08 06:30:09;;;;;;;6.07;4.40;;;;;;;21.67;73.75;98475.56;5057010;28;20243;-62
2021/10/08 06:32:35;;;;;;;13.63;4.77;;;;;;;21.66;73.36;98474.69;5043020;28;20200;-61
2021/10/08 06:35:02;;;;;;;4.60;4.20;;;;;;;21.66;73.72;98473.81;5057279;28;20288;-64
2021/10/08 06:37:29;;;;;;;5.87;4.20;;;;;;;21.65;73.88;98478.03;5064198;28;20252;-60
2021/10/08 06:39:55;;;;;;;5.30;4.00;;;;;;;21.66;74.13;98478.94;5059644;28;20228;-62
2021/10/08 06:42:24;;;;;;;3.97;3.37;;;;;;;21.66;74.84;98482.38;5057712;28;20287;-61
2021/10/08 06:44:52;;;;;;;4.90;3.60;;;;;;;21.65;75.32;98478.03;5061626;28;20673;-64
2021/10/08 06:47:19;;;;;;;3.40;3.10;;;;;;;21.46;75.40;98438.81;5065828;28;20315;-65
2021/10/08 06:49:45;;;;;;;4.90;3.43;;;;;;;21.59;75.40;98467.53;5042540;28;20224;-64
2021/10/08 06:52:12;;;;;;;3.77;3.30;;;;;;;21.62;75.59;98477.91;5044573;28;20295;-64
2021/10/08 06:54:39;;;;;;;5.87;3.17;;;;;;;21.61;75.85;98472.72;5063328;28;20228;-62
2021/10/08 06:57:05;;;;;;;4.50;3.07;;;;;;;21.63;76.11;98478.78;5047214;28;20223;-63
2021/10/08 06:59:32;;;;;;;4.00;3.27;;;;;;;21.58;75.58;98475.16;5062348;28;20299;-62
2021/10/08 07:01:59;;;;;;;3.37;3.07;;;;;;;21.61;76.18;98478.72;5047673;28;20628;-63
2021/10/08 07:04:26;;;;;;;4.33;3.53;;;;;;;21.59;76.53;98476.91;5067771;28;20232;-62
2021/10/08 07:06:52;;;;;;;3.47;3.10;;;;;;;21.57;76.50;98474.28;5062702;28;20279;-62
2021/10/08 07:09:19;;;;;;;3.80;3.13;;;;;;;21.62;76.21;98477.06;5013134;28;20258;-64
2021/10/08 07:11:45;;;;;;;3.77;3.30;;;;;;;21.62;75.91;98477.06;5060549;28;20658;-64
2021/10/08 07:14:12;;;;;;;4.33;3.57;;;;;;;21.62;76.18;98482.16;5066105;28;20696;-62
2021/10/08 07:16:38;;;;;;;8.43;3.93;;;;;;;21.63;76.30;98489.91;5064980;28;20250;-63
2021/10/08 07:19:09;;;;;;;3.30;3.00;;;;;;;21.57;76.33;98478.53;5069551;28;20226;-63
2021/10/08 07:21:36;;;;;;;3.00;2.63;;;;;;;21.63;76.48;98484.78;5054696;28;20228;-63
2021/10/08 07:24:03;;;;;;;3.27;2.97;;;;;;;21.62;76.39;98479.63;5050873;28;20254;-64
2021/10/08 07:26:31;;;;;;;6.00;3.07;;;;;;;21.55;76.51;98475.91;5065531;28;20201;-62
2021/10/08 07:28:57;;;;;;;4.10;3.20;;;;;;;21.63;76.51;98497.59;5048229;28;20326;-63
2021/10/08 07:31:24;;;;;;;4.90;2.80;;;;;;;21.63;76.67;98483.91;5040202;28;20682;-63
2021/10/08 07:33:51;;;;;;;3.63;3.00;;;;;;;21.43;77.05;98461.69;5061981;28;20618;-62
2021/10/08 07:36:17;;;;;;;3.40;2.80;;;;;;;21.62;76.76;98489.84;5041928;28;20804;-62
2021/10/08 07:38:44;;;;;;;3.20;2.90;;;;;;;21.62;76.71;98490.69;5031327;28;20708;-64
2021/10/08 07:41:11;;;;;;;3.20;2.70;;;;;;;21.63;76.79;98492.47;5057827;28;20239;-62
2021/10/08 07:43:37;;;;;;;2.93;2.73;;;;;;;21.62;76.67;98495.81;5057595;28;20255;-62
2021/10/08 07:46:04;;;;;;;3.20;2.63;;;;;;;21.63;76.84;98500.16;5055804;28;20280;-65
2021/10/08 07:48:31;;;;;;;2.80;2.60;;;;;;;21.62;76.49;98498.38;5058143;28;20864;-65
2021/10/08 07:50:57;;;;;;;2.70;2.50;;;;;;;21.62;76.74;98495.81;5039625;28;20193;-63
2021/10/08 07:53:24;;;;;;;4.00;3.10;;;;;;;21.57;76.49;98488.75;5057201;28;20504;-62
2021/10/08 07:55:51;;;;;;;3.07;2.80;;;;;;;21.62;76.65;98498.38;5056042;28;20216;-63
2021/10/08 07:58:17;;;;;;;3.00;2.70;;;;;;;21.49;76.92;98478.19;5053697;28;20256;-63
2021/10/08 08:00:44;;;;;;;3.17;2.87;;;;;;;21.54;76.78;98484.38;5020599;28;20649;-63
2021/10/08 08:03:10;;;;;;;3.03;2.70;;;;;;;21.61;76.63;98506.88;5037550;28;20290;-63
2021/10/08 08:05:37;;;;;;;2.70;2.50;;;;;;;21.57;76.58;98493.88;5058664;28;20244;-63
2021/10/08 08:08:04;;;;;;;3.53;2.60;;;;;;;21.60;77.11;98497.44;5057100;28;20220;-62
2021/10/08 08:10:31;;;;;;;3.20;2.87;;;;;;;21.60;76.94;98499.13;5058048;28;20208;-63
2021/10/08 08:12:57;;;;;;;3.30;2.93;;;;;;;21.57;76.90;98496.44;5056857;28;20939;-64
2021/10/08 08:15:24;;;;;;;3.13;2.80;;;;;;;21.60;76.73;98502.56;5055299;28;20269;-63
2021/10/08 08:17:51;;;;;;;3.37;3.07;;;;;;;21.59;76.92;98498.25;5054964;28;20256;-62
2021/10/08 08:20:18;;;;;;;3.40;2.90;;;;;;;21.60;76.94;98504.25;5058005;28;20224;-63
2021/10/08 08:22:44;;;;;;;3.10;2.80;;;;;;;21.59;77.15;98500.78;5056463;28;20235;-65
2021/10/08 08:25:11;;;;;;;2.93;2.73;;;;;;;21.60;77.18;98505.13;5054892;28;20729;-63
2021/10/08 08:27:37;;;;;;;3.23;2.93;;;;;;;21.55;77.34;98498.91;5052868;28;20228;-64
2021/10/08 08:30:05;;;;;;;3.10;2.80;;;;;;;21.60;77.21;98504.25;5022849;28;20269;-62
2021/10/08 08:32:32;;;;;;;3.00;2.70;;;;;;;21.55;76.96;98495.47;5040713;28;20291;-62
2021/10/08 08:34:59;;;;;;;3.33;3.03;;;;;;;21.60;77.25;98507.69;5037848;28;20192;-63
2021/10/08 08:37:26;;;;;;;2.83;2.63;;;;;;;21.59;77.08;98508.47;5040297;28;20255;-62
2021/10/08 08:39:52;;;;;;;3.23;2.90;;;;;;;21.45;77.25;98476.31;5040217;28;20200;-63
2021/10/08 08:42:19;;;;;;;3.13;2.70;;;;;;;21.61;77.25;98505.97;5021928;28;20232;-61
2021/10/08 08:44:47;;;;;;;3.40;3.07;;;;;;;21.61;77.17;98508.53;5018052;28;20749;-63
2021/10/08 08:47:17;;;;;;;2.83;2.60;;;;;;;21.56;77.35;98494.69;5056801;28;20224;-63
2021/10/08 08:49:43;;;;;;;2.90;2.60;;;;;;;21.61;77.07;98501.75;5038708;28;20193;-63
2021/10/08 08:52:10;;;;;;;2.63;2.43;;;;;;;21.61;77.26;98496.63;5038265;28;20637;-64
2021/10/08 08:54:37;;;;;;;3.30;2.70;;;;;;;21.61;77.05;98500.88;5037374;28;20604;-63
2021/10/08 08:57:18;;;;;;;2.83;2.53;;;;;;;21.62;77.07;98500.06;5034836;28;20288;-63
2021/10/08 09:00:12;;;;;;;3.20;2.63;;;;;;;21.61;77.25;98494.06;5054993;28;20204;-63
2021/10/08 09:02:42;;;;;;;2.90;2.60;;;;;;;21.61;77.21;98496.63;5054826;28;20870;-63
2021/10/08 09:05:28;;;;;;;2.50;2.30;;;;;;;21.59;77.35;98487.16;5036976;28;20260;-66
2021/10/08 09:07:56;;;;;;;3.17;2.73;;;;;;;21.20;77.32;98414.63;5041074;28;20244;-65
2021/10/08 09:10:27;;;;;;;3.10;2.80;;;;;;;21.56;77.39;98480.19;5045414;28;20231;-62
2021/10/08 09:12:55;;;;;;;2.70;2.50;;;;;;;21.42;77.27;98453.16;5041181;28;20220;-70
2021/10/08 09:15:22;;;;;;;3.20;2.70;;;;;;;21.51;77.36;98471.47;5022629;28;20207;-63
2021/10/08 09:17:48;;;;;;;3.47;2.90;;;;;;;21.61;77.68;98490.63;5024978;28;20428;-62
2021/10/08 09:20:18;;;;;;;2.57;2.30;;;;;;;21.51;77.05;98468.03;5054096;28;20262;-63
2021/10/08 09:22:46;;;;;;;2.90;2.63;;;;;;;21.60;77.02;98479.53;5036926;28;20605;-64
2021/10/08 09:25:15;;;;;;;4.17;2.73;;;;;;;21.55;76.98;98472.44;5055797;28;20751;-62
2021/10/08 09:27:44;;;;;;;3.33;3.07;;;;;;;21.60;76.97;98482.09;5036535;28;20640;-65
2021/10/08 09:30:10;;;;;;;3.10;2.80;;;;;;;21.55;76.86;98472.44;5059349;28;20296;-64
2021/10/08 09:32:51;;;;;;;3.47;2.87;;;;;;;21.51;77.07;98463.78;5029060;28;20337;-62
2021/10/08 09:35:24;;;;;;;3.87;3.20;;;;;;;21.60;76.79;98484.66;5052471;28;20197;-64
2021/10/08 09:37:55;;;;;;;3.30;2.70;;;;;;;21.60;77.05;98471.88;5037921;28;20224;-61
2021/10/08 09:40:22;;;;;;;3.57;3.03;;;;;;;21.60;76.76;98473.53;5052967;28;20541;-61
2021/10/08 09:42:48;;;;;;;4.97;3.10;;;;;;;21.58;77.05;98468.38;5058913;28;20200;-65
2021/10/08 09:45:15;;;;;;;2.90;2.60;;;;;;;21.61;76.96;98472.72;5045853;28;20235;-64
2021/10/08 09:47:57;;;;;;;3.20;2.80;;;;;;;21.61;77.11;98472.72;5049130;28;20654;-63
2021/10/08 09:50:24;;;;;;;3.20;2.77;;;;;;;21.52;76.70;98450.19;5062399;28;20232;-62
2021/10/08 09:52:50;;;;;;;3.80;3.10;;;;;;;21.61;76.77;98471.06;5045995;28;20288;-63
2021/10/08 09:55:17;;;;;;;3.33;2.97;;;;;;;21.61;76.95;98465.94;5027594;28;20205;-61
2021/10/08 09:57:49;;;;;;;4.27;3.23;;;;;;;21.62;76.89;98464.25;5066160;28;20246;-62
2021/10/08 10:00:37;;;;;;;3.60;3.10;;;;;;;21.62;76.90;98466.81;5062112;28;20561;-63
2021/10/08 10:03:05;;;;;;;3.60;3.27;;;;;;;21.48;76.75;98444.88;5038877;28;20624;-62
2021/10/08 10:05:32;;;;;;;3.63;3.23;;;;;;;21.57;76.82;98455.50;5044454;28;20301;-63
2021/10/08 10:07:58;;;;;;;3.53;3.23;;;;;;;21.61;76.70;98460.81;5012143;28;20278;-63
2021/10/08 10:10:26;;;;;;;4.87;3.30;;;;;;;21.53;76.80;98444.25;5061997;28;20699;-63
2021/10/08 10:12:52;;;;;;;3.90;3.20;;;;;;;21.62;77.00;98460.00;5043651;28;20239;-63
2021/10/08 10:15:19;;;;;;;4.90;2.90;;;;;;;21.63;76.76;98466.88;5040958;28;20321;-63
2021/10/08 10:17:46;;;;;;;4.90;3.70;;;;;;;21.50;76.98;98440.72;5050663;28;20224;-63
2021/10/08 10:20:13;;;;;;;3.77;3.10;;;;;;;21.64;76.75;98467.75;5035280;28;20232;-63
2021/10/08 10:22:40;;;;;;;5.77;3.30;;;;;;;21.64;76.96;98463.50;5058300;28;20195;-63
2021/10/08 10:25:07;;;;;;;3.13;2.87;;;;;;;21.63;76.83;98463.44;5037554;28;20245;-63
2021/10/08 10:27:34;;;;;;;3.27;2.97;;;;;;;21.55;76.75;98442.66;5035914;28;20246;-63
2021/10/08 10:30:00;;;;;;;3.17;2.80;;;;;;;21.62;76.77;98461.72;5020668;28;20232;-62
2021/10/08 10:32:27;;;;;;;4.10;3.70;;;;;;;21.58;76.88;98450.44;5036348;28;20235;-64
2021/10/08 10:34:54;;;;;;;3.63;3.27;;;;;;;21.64;76.81;98460.06;5016432;28;20266;-65
2021/10/08 10:37:41;;;;;;;4.83;3.50;;;;;;;21.60;76.81;98447.97;5053042;28;20753;-64
2021/10/08 10:40:21;;;;;;;7.10;3.43;;;;;;;21.35;77.28;98409.34;5045985;22;20228;-66
2021/10/08 10:43:32;;;;;;;5.13;3.80;;;;;;;21.65;78.85;98469.50;5005340;28;20284;-65
2021/10/08 10:52:04;;;;;;;5.63;4.30;;;;;;;21.66;83.42;98458.47;4991156;28;20248;-66
2021/10/08 10:54:37;;;;;;;5.57;3.90;;;;;;;21.67;83.84;98463.66;5013033;28;20198;-65
2021/10/08 10:57:36;;;;;;;4.07;3.63;;;;;;;21.67;83.61;98453.41;5013594;28;20202;-65
2021/10/08 11:00:21;;;;;;;5.33;3.90;;;;;;;21.67;82.96;98460.19;4991739;28;20330;-65
2021/10/08 11:03:22;;;;;;;5.67;3.87;;;;;;;21.66;82.27;98455.91;5009949;28;20230;-65
2021/10/08 11:06:19;;;;;;;7.80;4.00;;;;;;;21.66;81.53;98451.66;4949821;28;20312;-65
2021/10/08 11:09:08;;;;;;;5.40;4.07;;;;;;;21.65;81.11;98452.47;4974397;28;20295;-65
2021/10/08 11:11:34;;;;;;;6.53;4.37;;;;;;;21.66;80.82;98450.78;5008198;28;20284;-66
2021/10/08 11:14:18;;;;;;;12.63;8.00;;;;;;;21.63;74.84;98453.22;5013361;28;20198;-66
2021/10/08 11:16:44;;;;;;;12.50;10.07;;;;;;;21.61;71.78;98453.16;5010467;28;20475;-65
2021/10/08 11:19:37;;;;;;;12.97;10.70;;;;;;;21.60;67.76;98447.97;4994850;28;20218;-66
2021/10/08 11:22:03;;;;;;;13.03;10.60;;;;;;;21.58;66.75;98449.56;5009116;28;20281;-66
2021/10/08 11:24:30;;;;;;;12.67;11.03;;;;;;;21.55;64.81;98442.66;5012280;28;20901;-65
2021/10/08 11:26:59;;;;;;;12.30;11.00;;;;;;;21.53;63.71;98443.41;5010212;28;20202;-65
2021/10/08 11:29:34;;;;;;;16.57;11.30;;;;;;;21.50;62.47;98444.13;5011968;28;20288;-65
2021/10/08 11:32:01;;;;;;;15.80;11.07;;;;;;;21.48;62.03;98432.97;5009782;28;20239;-66
2021/10/08 11:34:27;;;;;;;12.87;11.57;;;;;;;21.47;60.94;98446.53;4994510;28;20666;-66
2021/10/08 11:36:56;;;;;;;14.90;11.40;;;;;;;21.43;60.83;98434.44;4996091;28;20667;-66
2021/10/08 11:39:22;;;;;;;12.33;9.97;;;;;;;21.41;61.36;98440.31;5009864;28;20265;-66
2021/10/08 11:41:55;;;;;;;12.80;10.97;;;;;;;21.37;62.02;98438.41;5010391;28;20217;-65
2021/10/08 11:44:28;;;;;;;12.33;11.00;;;;;;;21.35;62.66;98430.66;5009197;28;20305;-65
2021/10/08 11:47:14;;;;;;;14.83;11.27;;;;;;;21.34;63.31;98430.59;5013428;28;20224;-65